createdAt,value
2023-01-02T00:01:07.197Z,15.27
2023-01-02T00:03:34.726Z,21.13
2023-01-02T00:06:06.280Z,9.90
2023-01-02T00:08:33.655Z,21.53
2023-01-02T00:11:00.542Z,11.27
2023-01-02T00:13:27.935Z,19.53
2023-01-02T00:15:55.259Z,13.27
2023-01-02T00:18:22.725Z,10.83
2023-01-02T00:20:49.580Z,14.93
2023-01-02T00:23:16.581Z,12.63
2023-01-02T00:25:43.403Z,12.93
2023-01-02T00:28:10.329Z,14.23
2023-01-02T00:30:40.674Z,19.80
2023-01-02T00:33:07.683Z,11.10
2023-01-02T00:35:38.495Z,13.07
2023-01-02T00:38:06.268Z,15.10
2023-01-02T00:40:33.416Z,11.00
2023-01-02T00:43:00.667Z,18.87
2023-01-02T00:45:27.742Z,13.47
2023-01-02T00:47:54.621Z,8.27
2023-01-02T00:50:21.861Z,13.23
2023-01-02T00:52:48.744Z,16.47
2023-01-02T00:55:15.614Z,16.23
2023-01-02T00:57:42.925Z,16.90
2023-01-02T01:00:10.285Z,10.77
2023-01-02T01:02:37.700Z,15.70
2023-01-02T01:05:08.644Z,17.97
2023-01-02T01:07:35.581Z,23.00
2023-01-02T01:10:02.474Z,13.63
2023-01-02T01:12:29.533Z,11.53
2023-01-02T01:14:56.467Z,9.70
2023-01-02T01:17:23.543Z,14.70
2023-01-02T01:19:50.840Z,9.77
2023-01-02T01:22:17.732Z,12.93
2023-01-02T01:24:44.564Z,11.70
2023-01-02T01:27:11.532Z,15.13
2023-01-02T01:29:38.649Z,13.27
2023-01-02T01:32:05.758Z,9.90
2023-01-02T01:34:32.720Z,9.13
2023-01-02T01:37:00.375Z,13.57
2023-01-02T01:39:27.215Z,10.43
2023-01-02T01:41:54.203Z,13.97
2023-01-02T01:44:47.441Z,11.10
2023-01-02T01:47:23.373Z,12.87
2023-01-02T01:50:11.880Z,9.70
2023-01-02T01:52:46.950Z,16.70
2023-01-02T01:55:25.670Z,15.17
2023-01-02T01:58:07.039Z,8.10
2023-01-02T02:00:34.408Z,8.23
2023-01-02T02:03:11.152Z,11.30
2023-01-02T02:05:39.243Z,14.03
2023-01-02T02:08:38.046Z,13.67
2023-01-02T02:11:06.399Z,8.17
2023-01-02T02:13:34.163Z,9.40
2023-01-02T02:16:21.668Z,13.77
2023-01-02T02:19:03.138Z,13.07
2023-01-02T02:21:55.120Z,13.17
2023-01-02T02:24:46.215Z,12.60
2023-01-02T02:27:28.143Z,5.57
2023-01-02T02:30:21.981Z,10.20
2023-01-02T02:33:37.351Z,12.30
2023-01-02T02:36:24.455Z,10.23
2023-01-02T02:39:15.937Z,10.93
2023-01-02T02:42:03.086Z,10.97
2023-01-02T02:45:02.145Z,12.00
2023-01-02T02:47:47.130Z,7.47
2023-01-02T02:50:54.957Z,10.87
2023-01-02T02:53:25.039Z,17.03
2023-01-02T02:55:55.785Z,10.37
2023-01-02T02:58:24.194Z,12.57
2023-01-02T03:01:14.564Z,15.27
2023-01-02T03:03:41.690Z,10.57
2023-01-02T03:06:18.054Z,15.13
2023-01-02T03:08:50.519Z,15.10
2023-01-02T03:11:17.617Z,11.53
2023-01-02T03:14:01.208Z,13.97
2023-01-02T03:16:38.327Z,14.07
2023-01-02T03:19:10.952Z,18.00
2023-01-02T03:21:53.961Z,11.40
2023-01-02T03:24:22.539Z,10.30
2023-01-02T03:26:55.508Z,18.10
2023-01-02T03:29:46.200Z,11.60
2023-01-02T03:32:21.037Z,9.50
2023-01-02T03:34:48.890Z,17.60
2023-01-02T03:37:26.657Z,9.00
2023-01-02T03:39:57.692Z,11.47
2023-01-02T03:42:35.571Z,13.83
2023-01-02T03:45:05.602Z,10.80
2023-01-02T03:48:20.812Z,8.27
2023-01-02T03:50:52.917Z,13.90
2023-01-02T03:53:21.196Z,10.80
2023-01-02T03:56:03.865Z,13.33
2023-01-02T03:58:43.101Z,11.77
2023-01-02T04:01:15.277Z,11.23
2023-01-02T04:03:52.717Z,12.40
2023-01-02T04:06:27.994Z,16.00
2023-01-02T04:09:18.866Z,8.90
2023-01-02T04:11:50.646Z,9.37
2023-01-02T04:14:45.548Z,18.20
2023-01-02T04:17:16.373Z,8.53
2023-01-02T04:20:05.254Z,12.40
2023-01-02T04:22:39.272Z,9.40
2023-01-02T04:25:15.249Z,12.20
2023-01-02T04:28:15.096Z,9.60
2023-01-02T04:30:46.530Z,17.77
2023-01-02T04:33:14.780Z,8.60
2023-01-02T04:35:42.301Z,9.93
2023-01-02T04:38:11.153Z,10.07
2023-01-02T04:40:38.347Z,10.47
2023-01-02T04:43:08.655Z,18.57
2023-01-02T04:45:35.318Z,17.07
2023-01-02T04:48:02.081Z,11.40
2023-01-02T04:50:28.715Z,15.33
2023-01-02T04:52:55.700Z,15.90
2023-01-02T04:55:22.472Z,11.30
2023-01-02T04:57:49.188Z,9.60
2023-01-02T05:00:16.240Z,8.07
2023-01-02T05:02:43.026Z,12.40
2023-01-02T05:05:10.633Z,10.03
2023-01-02T05:07:38.028Z,9.70
2023-01-02T05:10:06.143Z,15.60
2023-01-02T05:12:37.413Z,9.53
2023-01-02T05:15:06.761Z,11.63
2023-01-02T05:17:38.188Z,9.00
2023-01-02T05:20:07.550Z,11.30
2023-01-02T05:22:53.209Z,12.47
2023-01-02T05:25:19.949Z,8.17
2023-01-02T05:27:46.927Z,16.13
2023-01-02T05:30:14.394Z,8.60
2023-01-02T05:32:41.005Z,8.33
2023-01-02T05:35:08.036Z,16.27
2023-01-02T05:37:34.785Z,12.83
2023-01-02T05:40:01.558Z,9.90
2023-01-02T05:42:28.242Z,5.93
2023-01-02T05:44:55.335Z,7.50
2023-01-02T05:47:22.440Z,10.23
2023-01-02T05:49:49.183Z,17.30
2023-01-02T05:52:15.887Z,14.17
2023-01-02T05:54:42.569Z,8.07
2023-01-02T05:57:09.356Z,7.17
2023-01-02T05:59:36.530Z,7.87
2023-01-02T06:02:03.903Z,9.83
2023-01-02T06:04:30.716Z,12.50
2023-01-02T06:06:57.403Z,11.07
2023-01-02T06:09:24.091Z,16.87
2023-01-02T06:11:50.735Z,9.83
2023-01-02T06:14:17.395Z,9.90
2023-01-02T06:16:44.414Z,11.40
2023-01-02T06:19:11.724Z,9.73
2023-01-02T06:21:38.796Z,13.80
2023-01-02T06:24:05.703Z,11.33
2023-01-02T06:26:35.275Z,16.20
2023-01-02T06:29:03.462Z,8.87
2023-01-02T06:31:30.591Z,7.30
2023-01-02T06:34:02.240Z,7.70
2023-01-02T06:36:34.370Z,8.83
2023-01-02T06:39:01.714Z,8.73
2023-01-02T06:41:28.505Z,8.43
2023-01-02T06:43:55.939Z,9.87
2023-01-02T06:46:24.116Z,5.90
2023-01-02T06:48:50.970Z,10.13
2023-01-02T06:51:21.247Z,12.33
2023-01-02T06:53:48.839Z,12.03
2023-01-02T06:56:20.776Z,10.27
2023-01-02T06:58:47.714Z,10.27
2023-01-02T07:01:20.342Z,8.70
2023-01-02T07:03:47.528Z,7.60
2023-01-02T07:06:16.898Z,9.73
2023-01-02T07:08:44.193Z,10.80
2023-01-02T07:11:22.777Z,8.77
2023-01-02T07:13:51.857Z,5.30
2023-01-02T07:16:20.518Z,12.60
2023-01-02T07:18:48.041Z,6.57
2023-01-02T07:21:15.726Z,10.97
2023-01-02T07:23:42.560Z,8.40
2023-01-02T07:26:10.070Z,12.27
2023-01-02T07:28:37.992Z,7.30
2023-01-02T07:31:12.799Z,7.27
2023-01-02T07:33:39.852Z,11.10
2023-01-02T07:36:10.449Z,7.17
2023-01-02T07:38:39.321Z,8.63
2023-01-02T07:41:07.396Z,19.83
2023-01-02T07:43:34.229Z,9.43
2023-01-02T07:46:05.162Z,10.80
2023-01-02T07:48:32.126Z,7.43
2023-01-02T07:51:04.140Z,10.50
2023-01-02T07:53:31.419Z,13.90
2023-01-02T07:56:00.113Z,15.30
2023-01-02T07:58:27.674Z,10.47
2023-01-02T08:00:59.782Z,16.83
2023-01-02T08:03:28.390Z,7.63
2023-01-02T08:05:55.315Z,12.90
2023-01-02T08:08:22.165Z,6.83
2023-01-02T08:10:48.997Z,12.37
2023-01-02T08:13:15.936Z,10.93
2023-01-02T08:15:43.101Z,7.53
2023-01-02T08:18:09.968Z,15.50
2023-01-02T08:20:36.805Z,7.30
2023-01-02T08:23:03.754Z,5.63
2023-01-02T08:25:30.896Z,2.40
2023-01-02T08:27:57.766Z,4.93
2023-01-02T08:30:24.625Z,2.07
2023-01-02T08:32:51.896Z,2.00
2023-01-02T08:35:29.423Z,3.17
2023-01-02T08:38:04.080Z,7.07
2023-01-02T08:40:30.998Z,2.53
2023-01-02T08:42:57.868Z,3.13
2023-01-02T08:45:25.145Z,2.53
2023-01-02T08:47:52.079Z,2.53
2023-01-02T08:50:19.350Z,2.63
2023-01-02T08:52:46.329Z,2.50
2023-01-02T08:55:13.805Z,2.40
2023-01-02T08:57:40.625Z,2.30
2023-01-02T09:00:08.467Z,2.27
2023-01-02T09:02:35.653Z,2.63
2023-01-02T09:05:02.648Z,2.80
2023-01-02T09:07:32.458Z,2.60
2023-01-02T09:09:59.628Z,2.43
2023-01-02T09:12:26.764Z,2.90
2023-01-02T09:14:54.093Z,4.27
2023-01-02T09:17:20.992Z,3.23
2023-01-02T09:19:48.632Z,3.47
2023-01-02T09:22:15.669Z,4.53
2023-01-02T09:24:42.548Z,2.70
2023-01-02T09:27:09.964Z,3.20
2023-01-02T09:29:36.792Z,3.20
2023-01-02T09:32:04.450Z,3.30
2023-01-02T09:34:31.389Z,2.97
2023-01-02T09:36:58.512Z,3.47
2023-01-02T09:39:31.996Z,3.27
2023-01-02T09:42:01.154Z,2.87
2023-01-02T09:44:46.434Z,2.73
2023-01-02T09:47:13.340Z,2.90
2023-01-02T09:49:45.839Z,3.20
2023-01-02T09:52:22.082Z,6.40
2023-01-02T09:54:49.281Z,4.43
2023-01-02T09:57:27.521Z,5.70
2023-01-02T09:59:58.146Z,3.07
2023-01-02T10:02:37.116Z,3.20
2023-01-02T10:05:22.029Z,3.43
2023-01-02T10:08:12.164Z,3.70
2023-01-02T10:10:46.533Z,3.70
2023-01-02T10:14:16.712Z,3.57
2023-01-02T10:16:27.556Z,3.50
2023-01-02T10:18:57.431Z,4.23
2023-01-02T10:21:28.896Z,4.30
2023-01-02T10:24:19.297Z,5.50
2023-01-02T10:26:52.249Z,3.90
2023-01-02T10:29:39.355Z,4.23
2023-01-02T10:32:13.093Z,4.30
2023-01-02T10:34:54.843Z,4.20
2023-01-02T10:37:22.031Z,4.50
2023-01-02T10:39:50.267Z,4.83
2023-01-02T10:42:17.670Z,5.60
2023-01-02T10:44:46.180Z,5.70
2023-01-02T10:47:28.474Z,5.50
2023-01-02T10:49:56.849Z,5.00
2023-01-02T10:52:32.968Z,4.90
2023-01-02T10:55:01.405Z,7.00
2023-01-02T10:57:42.763Z,4.73
2023-01-02T11:00:25.752Z,5.60
2023-01-02T11:03:01.145Z,6.63
2023-01-02T11:05:30.356Z,4.93
2023-01-02T11:07:58.220Z,4.90
2023-01-02T11:10:36.760Z,6.90
2023-01-02T11:13:08.898Z,5.97
2023-01-02T11:15:43.740Z,6.83
2023-01-02T11:18:21.779Z,7.27
2023-01-02T11:20:53.402Z,10.30
2023-01-02T11:23:26.172Z,7.80
2023-01-02T11:25:54.343Z,7.47
2023-01-02T11:28:28.617Z,9.20
2023-01-02T11:31:13.968Z,14.20
2023-01-02T11:33:41.669Z,7.50
2023-01-02T11:36:11.310Z,8.70
2023-01-02T11:38:50.783Z,7.13
2023-01-02T11:42:11.574Z,5.60
2023-01-02T11:44:55.307Z,7.20
2023-01-02T11:47:37.816Z,6.03
2023-01-02T11:50:05.058Z,10.13
2023-01-02T11:52:51.416Z,5.80
2023-01-02T11:55:21.223Z,7.30
2023-01-02T11:57:48.177Z,9.50
2023-01-02T12:00:18.742Z,8.97
2023-01-02T12:02:51.792Z,8.63
2023-01-02T12:06:02.185Z,9.20
2023-01-02T12:08:59.535Z,9.77
2023-01-02T12:11:51.369Z,8.53
2023-01-02T12:14:22.155Z,7.23
2023-01-02T12:17:00.272Z,8.70
2023-01-02T12:19:27.174Z,9.33
2023-01-02T12:22:09.541Z,6.37
2023-01-02T12:24:55.193Z,7.00
2023-01-02T12:27:27.807Z,7.60
2023-01-02T12:30:15.889Z,9.50
2023-01-02T12:33:13.874Z,4.40
2023-01-02T12:35:58.873Z,12.77
2023-01-02T12:38:56.978Z,4.50
2023-01-02T12:41:35.817Z,5.07
2023-01-02T12:44:29.927Z,5.77
2023-01-02T12:47:09.423Z,3.93
2023-01-02T12:49:56.339Z,4.10
2023-01-02T12:52:31.936Z,6.83
2023-01-02T12:55:17.352Z,5.80
2023-01-02T12:58:35.616Z,12.20
2023-01-02T13:01:09.204Z,4.37
2023-01-02T13:03:59.695Z,4.17
2023-01-02T13:06:45.438Z,5.27
2023-01-02T13:09:22.782Z,3.83
2023-01-02T13:12:15.086Z,4.93
2023-01-02T13:14:49.900Z,5.47
2023-01-02T13:17:36.336Z,8.60
2023-01-02T13:20:40.889Z,6.73
2023-01-02T13:23:27.125Z,6.27
2023-01-02T13:26:00.631Z,5.93
2023-01-02T13:28:27.698Z,4.60
2023-01-02T13:31:26.623Z,5.17
2023-01-02T13:33:51.084Z,13.00
2023-01-02T13:36:23.239Z,5.77
2023-01-02T13:38:58.612Z,8.17
2023-01-02T13:41:27.650Z,5.20
2023-01-02T13:44:01.287Z,6.03
2023-01-02T13:47:02.911Z,4.43
2023-01-02T13:49:26.680Z,8.80
2023-01-02T13:51:59.974Z,7.37
2023-01-02T13:54:36.609Z,6.70
2023-01-02T13:57:28.386Z,7.20
2023-01-02T14:00:00.580Z,11.13
2023-01-02T14:02:28.034Z,9.13
2023-01-02T14:04:55.073Z,9.10
2023-01-02T14:07:25.006Z,10.10
2023-01-02T14:10:10.071Z,16.10
2023-01-02T14:12:59.848Z,12.63
2023-01-02T14:15:27.709Z,14.93
2023-01-02T14:18:11.888Z,16.30
2023-01-02T14:20:44.444Z,20.00
2023-01-02T14:23:26.606Z,15.90
2023-01-02T14:25:53.670Z,17.23
2023-01-02T14:28:30.259Z,17.20
2023-01-02T14:30:58.528Z,20.00
2023-01-02T14:33:30.262Z,19.87
2023-01-02T14:36:00.123Z,20.63
2023-01-02T14:38:30.056Z,18.67
2023-01-02T14:41:16.000Z,18.20
2023-01-02T14:43:44.108Z,21.00
2023-01-02T14:46:22.729Z,20.63
2023-01-02T14:49:25.183Z,20.30
2023-01-02T14:52:06.163Z,18.57
2023-01-02T14:54:57.737Z,16.60
2023-01-02T14:57:34.999Z,16.70
2023-01-02T15:00:05.146Z,14.50
2023-01-02T15:02:40.094Z,16.60
2023-01-02T15:05:32.173Z,14.90
2023-01-02T15:08:00.672Z,16.97
2023-01-02T15:10:27.604Z,19.10
2023-01-02T15:13:04.896Z,15.70
2023-01-02T15:15:54.034Z,22.77
2023-01-02T15:18:26.469Z,15.00
2023-01-02T15:21:15.994Z,18.23
2023-01-02T15:23:47.761Z,14.00
2023-01-02T15:26:35.045Z,12.63
2023-01-02T15:29:18.992Z,15.13
2023-01-02T15:32:32.279Z,15.77
2023-01-02T15:35:20.472Z,12.67
2023-01-02T15:37:48.833Z,11.93
2023-01-02T15:40:26.846Z,11.67
2023-01-02T15:43:13.950Z,13.03
2023-01-02T15:45:45.595Z,14.93
2023-01-02T15:48:14.716Z,13.20
2023-01-02T15:50:42.933Z,9.43
2023-01-02T15:53:23.641Z,11.07
2023-01-02T15:55:50.735Z,10.70
2023-01-02T15:58:22.086Z,10.37
2023-01-02T16:00:49.841Z,11.63
2023-01-02T16:04:02.782Z,10.00
2023-01-02T16:06:32.069Z,9.10
2023-01-02T16:09:02.113Z,8.97
2023-01-02T16:11:30.194Z,7.60
2023-01-02T16:14:37.601Z,9.87
2023-01-02T16:17:27.069Z,8.33
2023-01-02T16:20:01.583Z,6.97
2023-01-02T16:22:28.603Z,10.00
2023-01-02T16:25:05.606Z,8.77
2023-01-02T16:27:39.123Z,14.40
2023-01-02T16:30:32.814Z,12.23
2023-01-02T16:33:19.450Z,8.90
2023-01-02T16:36:06.241Z,10.77
2023-01-02T16:38:45.862Z,11.77
2023-01-02T16:41:44.831Z,8.20
2023-01-02T16:44:19.980Z,11.20
2023-01-02T16:46:49.215Z,12.50
2023-01-02T16:49:21.427Z,14.43
2023-01-02T16:51:51.192Z,13.97
2023-01-02T16:54:19.581Z,11.07
2023-01-02T16:56:48.038Z,11.40
2023-01-02T16:59:14.843Z,12.57
2023-01-02T17:01:41.929Z,11.70
2023-01-02T17:04:11.897Z,11.00
2023-01-02T17:06:38.778Z,12.80
2023-01-02T17:09:07.222Z,9.53
2023-01-02T17:11:34.096Z,7.43
2023-01-02T17:14:01.730Z,9.70
2023-01-02T17:16:29.133Z,8.40
2023-01-02T17:18:56.160Z,8.67
2023-01-02T17:21:26.269Z,7.93
2023-01-02T17:23:57.766Z,9.17
2023-01-02T17:26:25.558Z,7.47
2023-01-02T17:28:53.355Z,7.40
2023-01-02T17:31:25.568Z,6.43
2023-01-02T17:33:53.055Z,7.43
2023-01-02T17:36:20.135Z,7.23
2023-01-02T17:38:47.079Z,11.53
2023-01-02T17:41:14.184Z,8.27
2023-01-02T17:44:02.646Z,7.77
2023-01-02T17:47:04.334Z,6.87
2023-01-02T17:49:14.992Z,7.00
2023-01-02T17:51:41.900Z,6.60
2023-01-02T17:54:08.750Z,8.00
2023-01-02T17:56:35.639Z,6.63
2023-01-02T17:59:03.917Z,9.83
2023-01-02T18:01:31.080Z,8.50
2023-01-02T18:03:58.117Z,13.13
2023-01-02T18:06:28.152Z,8.23
2023-01-02T18:08:56.019Z,7.20
2023-01-02T18:11:23.338Z,9.47
2023-01-02T18:13:53.726Z,6.23
2023-01-02T18:16:23.771Z,9.30
2023-01-02T18:18:53.229Z,8.10
2023-01-02T18:21:23.496Z,9.03
2023-01-02T18:23:59.547Z,7.40
2023-01-02T18:26:27.379Z,6.90
2023-01-02T18:29:07.469Z,8.40
2023-01-02T18:31:42.381Z,9.80
2023-01-02T18:34:48.306Z,12.33
2023-01-02T18:37:23.054Z,7.60
2023-01-02T18:39:50.882Z,9.80
2023-01-02T18:42:23.128Z,7.10
2023-01-02T18:44:52.057Z,10.73
2023-01-02T18:47:32.112Z,8.33
2023-01-02T18:50:19.844Z,6.13
2023-01-02T18:52:50.527Z,7.90
2023-01-02T18:55:24.907Z,9.60
2023-01-02T18:58:08.117Z,6.93
2023-01-02T19:00:38.822Z,6.50
2023-01-02T19:03:08.833Z,7.20
2023-01-02T19:05:39.968Z,9.20
2023-01-02T19:08:12.872Z,10.33
2023-01-02T19:10:49.865Z,10.20
2023-01-02T19:13:19.110Z,9.13
2023-01-02T19:15:59.765Z,10.73
2023-01-02T19:18:29.909Z,7.77
2023-01-02T19:21:04.095Z,9.53
2023-01-02T19:23:43.250Z,10.27
2023-01-02T19:26:19.751Z,7.70
2023-01-02T19:28:59.736Z,8.07
2023-01-02T19:31:34.099Z,8.73
2023-01-02T19:34:02.021Z,7.57
2023-01-02T19:36:41.327Z,5.67
2023-01-02T19:39:26.128Z,6.97
2023-01-02T19:42:12.235Z,10.60
2023-01-02T19:44:39.143Z,8.30
2023-01-02T19:47:06.161Z,5.80
2023-01-02T19:49:33.135Z,7.60
2023-01-02T19:52:00.116Z,7.70
2023-01-02T19:54:27.072Z,11.20
2023-01-02T19:56:53.910Z,9.23
2023-01-02T19:59:21.245Z,8.53
2023-01-02T20:01:49.046Z,13.33
2023-01-02T20:04:16.121Z,10.37
2023-01-02T20:06:43.101Z,7.97
2023-01-02T20:09:10.203Z,8.40
2023-01-02T20:11:55.582Z,8.77
2023-01-02T20:14:22.564Z,11.70
2023-01-02T20:16:49.458Z,9.70
2023-01-02T20:19:16.364Z,9.83
2023-01-02T20:21:43.391Z,9.90
2023-01-02T20:24:10.344Z,12.70
2023-01-02T20:26:37.256Z,13.30
2023-01-02T20:29:21.240Z,17.53
2023-01-02T20:38:02.332Z,11.13
2023-01-02T20:40:41.052Z,11.53
2023-01-02T20:43:22.853Z,9.33
2023-01-02T20:46:00.209Z,11.43
2023-01-02T20:48:46.512Z,14.90
2023-01-02T20:51:19.450Z,11.10
2023-01-02T20:54:03.781Z,11.17
2023-01-02T20:56:48.841Z,16.70
2023-01-02T21:00:02.819Z,17.93
2023-01-02T21:02:46.698Z,13.10
2023-01-02T21:05:52.614Z,14.00
2023-01-02T21:08:31.252Z,15.53
2023-01-02T21:11:18.484Z,12.60
2023-01-02T21:14:12.753Z,12.63
2023-01-02T21:17:02.341Z,19.00
2023-01-02T21:19:51.691Z,17.37
2023-01-02T21:22:28.672Z,18.97
2023-01-02T21:25:25.491Z,22.63
2023-01-02T21:27:57.453Z,14.20
2023-01-02T21:30:44.358Z,21.70
2023-01-02T21:33:16.896Z,14.47
2023-01-02T21:35:48.229Z,16.47
2023-01-02T21:38:15.562Z,15.07
2023-01-02T21:40:42.946Z,19.10
2023-01-02T21:43:10.078Z,15.50
2023-01-02T21:45:37.232Z,19.70
2023-01-02T21:48:04.524Z,21.40
2023-01-02T21:50:31.528Z,13.80
2023-01-02T21:52:58.531Z,14.97
2023-01-02T21:55:25.764Z,14.87
2023-01-02T22:00:42.299Z,15.93
2023-01-02T22:03:10.007Z,21.07
2023-01-02T22:05:36.992Z,19.63
2023-01-02T22:08:04.470Z,18.50
2023-01-02T22:10:31.444Z,16.60
2023-01-02T22:12:58.550Z,21.00
2023-01-02T22:15:26.276Z,19.17
2023-01-02T22:17:53.163Z,18.70
2023-01-02T22:20:20.448Z,23.83
2023-01-02T22:22:47.346Z,23.27
2023-01-02T22:25:14.213Z,19.70
2023-01-02T22:27:41.901Z,21.10
2023-01-02T22:30:20.974Z,18.97
2023-01-02T22:32:51.997Z,18.40
2023-01-02T22:35:18.958Z,22.50
2023-01-02T22:37:46.056Z,24.17
2023-01-02T22:40:12.950Z,24.70
2023-01-02T22:43:01.103Z,20.10
2023-01-02T22:45:33.314Z,22.17
2023-01-02T22:48:04.474Z,19.13
2023-01-02T22:50:39.936Z,23.57
2023-01-02T22:53:14.075Z,19.60
2023-01-02T22:55:41.220Z,21.80
2023-01-02T22:58:08.827Z,20.13
2023-01-02T23:00:35.998Z,23.30
2023-01-02T23:03:02.869Z,20.00
2023-01-02T23:05:29.808Z,21.23
2023-01-02T23:07:56.759Z,21.53
2023-01-02T23:10:23.673Z,30.57
2023-01-02T23:12:50.572Z,27.33
2023-01-02T23:15:17.527Z,24.47
2023-01-02T23:18:03.164Z,21.37
2023-01-02T23:20:30.290Z,22.97
2023-01-02T23:22:57.770Z,25.53
2023-01-02T23:25:24.623Z,24.00
2023-01-02T23:27:52.401Z,22.33
2023-01-02T23:30:19.317Z,25.40
2023-01-02T23:32:46.641Z,29.30
2023-01-02T23:35:13.586Z,23.50
2023-01-02T23:37:40.461Z,27.23
2023-01-02T23:40:08.512Z,31.13
2023-01-02T23:42:35.335Z,34.13
2023-01-02T23:45:03.264Z,29.63
2023-01-02T23:47:30.119Z,27.90
2023-01-02T23:49:57.322Z,30.63
2023-01-02T23:52:24.577Z,40.23
2023-01-02T23:54:51.423Z,32.03
2023-01-02T23:57:18.601Z,25.50
2023-01-02T23:59:45.449Z,25.63
